Time;durP1;ratioP1;P1;durP2;ratioP2;P2;SDS_P1;SDS_P2;PMS_P1;PMS_P2;Temp;Humidity;BMP_temperature;BMP_pressure;BME280_temperature;BME280_humidity;BME280_pressure;Samples;Min_cycle;Max_cycle;Signal;HPM_P1;HPM_P2
2022/09/22 00:01:10;;;;;;;395.08;145.80;;;;;;;12.24;100.00;98797.06;5065392;28;20028;-90
2022/09/22 00:03:38;;;;;;;9.18;3.78;;;;;;;11.92;100.00;98777.47;5092160;28;20035;-91
2022/09/22 00:06:17;;;;;;;9.00;3.55;;;;;;;12.16;100.00;98783.25;5059084;28;20046;-92
2022/09/22 00:08:46;;;;;;;9.27;3.65;;;;;;;12.00;100.00;98787.84;5051982;28;20047;-92
2022/09/22 00:11:19;;;;;;;8.18;3.30;;;;;;;12.25;100.00;98783.13;5044410;28;20051;-91
2022/09/22 00:14:06;;;;;;;11.15;3.53;;;;;;;12.13;100.00;98781.53;5065476;28;20039;-92
2022/09/22 00:16:41;;;;;;;9.32;3.40;;;;;;;12.34;100.00;98776.03;5051464;28;20040;-91
2022/09/22 00:19:17;;;;;;;10.45;3.50;;;;;;;12.32;100.00;98772.56;5042849;28;20036;-93
2022/09/22 00:21:43;;;;;;;9.50;3.55;;;;;;;12.24;100.00;98763.09;5036368;28;20029;-92
2022/09/22 00:24:09;;;;;;;8.13;3.42;;;;;;;12.30;100.00;98762.13;5034413;28;20060;-93
2022/09/22 00:26:42;;;;;;;7.60;2.95;;;;;;;12.17;100.00;98771.06;5036570;28;20120;-91
2022/09/22 00:29:15;;;;;;;9.95;3.35;;;;;;;12.31;100.00;98765.63;5055891;28;20044;-92
2022/09/22 00:31:44;;;;;;;9.43;3.58;;;;;;;12.27;100.00;98742.09;5042480;28;20411;-92
2022/09/22 00:34:19;;;;;;;9.40;3.40;;;;;;;12.31;100.00;98753.41;5044732;28;20039;-92
2022/09/22 00:36:45;;;;;;;9.55;3.80;;;;;;;12.45;100.00;98755.78;5056954;28;20033;-91
2022/09/22 00:39:12;;;;;;;10.68;3.40;;;;;;;12.45;100.00;98740.94;5055788;28;20040;-92
2022/09/22 00:41:40;;;;;;;9.98;3.83;;;;;;;12.26;100.00;98748.25;5056921;28;20029;-91
2022/09/22 00:44:35;;;;;;;11.00;3.40;;;;;;;12.34;100.00;98737.66;5061567;28;20036;-92
2022/09/22 00:47:25;;;;;;;9.27;3.63;;;;;;;12.48;100.00;98729.56;5048162;28;20033;-91
2022/09/22 00:50:04;;;;;;;8.75;3.45;;;;;;;12.39;100.00;98740.22;5059983;28;20040;-93
2022/09/22 00:52:43;;;;;;;9.18;3.50;;;;;;;12.39;100.00;98735.84;5044718;28;20025;-92
2022/09/22 00:55:35;;;;;;;8.75;3.05;;;;;;;12.47;100.00;98717.41;5044034;28;20534;-92
2022/09/22 00:58:05;;;;;;;9.60;3.50;;;;;;;12.47;100.00;98712.16;5060875;28;20051;-92
2022/09/22 01:00:30;;;;;;;10.52;3.85;;;;;;;12.48;100.00;98716.50;5048158;28;20091;-92
2022/09/22 01:02:59;;;;;;;8.65;3.58;;;;;;;12.57;100.00;98710.25;5041797;28;20135;-91
2022/09/22 01:05:27;;;;;;;10.60;3.53;;;;;;;12.57;100.00;98705.03;5037801;28;20035;-93
2022/09/22 01:07:54;;;;;;;9.00;3.47;;;;;;;12.66;100.00;98706.59;5037282;28;20024;-92
2022/09/22 01:10:20;;;;;;;9.70;3.63;;;;;;;12.52;100.00;98699.84;5037629;28;20092;-91
2022/09/22 01:13:09;;;;;;;8.52;3.38;;;;;;;12.68;100.00;98702.19;5037816;28;20036;-94
2022/09/22 01:16:19;;;;;;;8.85;3.35;;;;;;;12.60;100.00;98704.97;5054727;28;20054;-92
2022/09/22 01:19:15;;;;;;;9.13;3.40;;;;;;;12.58;100.00;98710.22;5033963;28;20050;-92
2022/09/22 01:21:47;;;;;;;9.23;3.60;;;;;;;12.64;100.00;98706.63;5056290;28;20533;-93
2022/09/22 01:24:31;;;;;;;8.52;3.33;;;;;;;12.66;100.00;98702.22;5057176;28;20027;-92
2022/09/22 01:27:24;;;;;;;8.85;3.50;;;;;;;12.37;100.00;98681.81;5037431;28;20070;-93
2022/09/22 01:29:53;;;;;;;9.75;3.60;;;;;;;12.71;100.00;98679.47;5034097;28;20040;-92
2022/09/22 01:32:37;;;;;;;10.35;3.70;;;;;;;12.76;100.00;98687.22;5036558;28;20892;-92
2022/09/22 01:35:27;;;;;;;8.90;3.45;;;;;;;12.69;100.00;98683.00;5042545;28;20063;-92
2022/09/22 01:38:26;;;;;;;9.73;3.55;;;;;;;12.64;100.00;98686.56;5058346;28;20037;-92
2022/09/22 01:40:55;;;;;;;9.77;3.70;;;;;;;12.84;100.00;98682.69;5038572;28;20120;-91
2022/09/22 01:43:36;;;;;;;9.02;3.40;;;;;;;12.38;100.00;98686.16;5054908;28;20115;-92
2022/09/22 01:46:09;;;;;;;9.77;3.30;;;;;;;12.37;100.00;98676.59;5037492;28;20062;-92
2022/09/22 01:48:42;;;;;;;8.38;3.03;;;;;;;12.45;100.00;98665.09;5041691;28;20157;-92
2022/09/22 01:51:14;;;;;;;8.32;3.28;;;;;;;12.24;100.00;98663.72;5037752;28;20032;-92
2022/09/22 01:53:48;;;;;;;7.57;3.00;;;;;;;12.51;100.00;98664.16;5033796;28;20116;-92
2022/09/22 01:56:17;;;;;;;8.55;3.38;;;;;;;12.36;100.00;98660.03;5040734;28;20111;-93
2022/09/22 01:58:48;;;;;;;9.55;3.63;;;;;;;12.40;100.00;98660.84;5052579;28;20491;-93
2022/09/22 02:01:25;;;;;;;12.68;3.80;;;;;;;12.34;100.00;98661.81;5141445;23;20088;-96
2022/09/22 02:03:59;;;;;;;8.10;3.33;;;;;;;12.54;100.00;98655.34;5071096;28;20067;-96
2022/09/22 02:06:57;;;;;;;9.95;3.88;;;;;;;12.49;100.00;98651.97;5094212;28;20067;-96
2022/09/22 02:09:29;;;;;;;10.30;3.45;;;;;;;12.54;100.00;98637.94;5054216;28;20045;-96
2022/09/22 02:11:56;;;;;;;9.45;3.80;;;;;;;12.51;100.00;98645.84;5063626;28;20028;-96
2022/09/22 02:14:23;;;;;;;8.35;3.15;;;;;;;12.43;100.00;98645.97;5064660;28;20052;-96
2022/09/22 02:16:50;;;;;;;10.88;4.20;;;;;;;12.73;100.00;98638.41;5063112;28;20032;-96
2022/09/22 02:19:40;;;;;;;8.57;3.20;;;;;;;12.45;100.00;98622.38;5064130;28;20410;-95
2022/09/22 02:22:08;;;;;;;9.20;3.58;;;;;;;12.46;100.00;98616.28;5056385;28;20036;-96
2022/09/22 02:24:37;;;;;;;490.95;106.82;;;;;;;12.52;100.00;98605.69;5069858;28;20074;-96
2022/09/22 02:27:04;;;;;;;9.88;3.30;;;;;;;12.59;100.00;98625.59;5076866;28;20033;-96
2022/09/22 02:29:34;;;;;;;8.93;3.70;;;;;;;12.44;100.00;98611.06;5060960;28;20066;-96
2022/09/22 02:32:04;;;;;;;10.52;3.50;;;;;;;12.44;100.00;98611.06;5057753;28;20071;-96
2022/09/22 02:34:30;;;;;;;11.13;3.95;;;;;;;12.67;100.00;98614.16;5058773;28;20032;-96
2022/09/22 02:37:27;;;;;;;10.85;3.40;;;;;;;12.67;100.00;98604.53;5057616;28;20170;-96
2022/09/22 02:40:23;;;;;;;9.00;3.65;;;;;;;12.60;100.00;98603.78;5058281;28;20079;-96
2022/09/22 02:43:02;;;;;;;8.25;3.42;;;;;;;12.69;100.00;98602.72;5059383;28;20044;-96
2022/09/22 02:45:49;;;;;;;10.48;3.45;;;;;;;12.68;100.00;98594.91;5051829;28;20087;-96
2022/09/22 02:48:44;;;;;;;8.88;2.85;;;;;;;12.49;100.00;98610.97;5060746;28;20036;-96
2022/09/22 02:51:10;;;;;;;10.07;3.17;;;;;;;12.31;100.00;98596.50;5048547;28;20046;-95
2022/09/22 02:53:36;;;;;;;8.45;3.40;;;;;;;12.46;100.00;98601.44;5062392;28;20029;-96
2022/09/22 02:56:03;;;;;;;11.77;3.70;;;;;;;12.41;100.00;98594.56;5057065;28;20024;-96
2022/09/22 02:58:28;;;;;;;8.73;3.13;;;;;;;12.51;100.00;98603.09;5059106;28;20021;-96
2022/09/22 03:00:54;;;;;;;8.18;3.47;;;;;;;12.42;100.00;98597.16;5060065;28;20232;-96
2022/09/22 03:03:21;;;;;;;9.07;3.60;;;;;;;12.54;100.00;98588.22;5062094;28;20020;-96
2022/09/22 03:05:46;;;;;;;8.60;3.60;;;;;;;12.38;100.00;98584.19;5060781;28;20024;-96
2022/09/22 03:08:12;;;;;;;10.32;3.42;;;;;;;12.25;100.00;98592.25;5083337;28;20047;-96
2022/09/22 03:10:38;;;;;;;71.88;15.52;;;;;;;12.25;100.00;98587.00;5069169;28;20092;-96
2022/09/22 03:13:08;;;;;;;8.35;3.20;;;;;;;12.31;100.00;98572.13;5077029;28;20060;-96
2022/09/22 03:15:34;;;;;;;11.40;3.80;;;;;;;12.32;100.00;98574.69;5073440;28;20024;-96
2022/09/22 03:17:59;;;;;;;10.13;4.03;;;;;;;12.11;100.00;98570.75;5072501;28;20053;-96
2022/09/22 03:20:25;;;;;;;10.02;4.00;;;;;;;12.26;100.00;98564.34;5063547;28;20033;-96
2022/09/22 03:22:50;;;;;;;9.25;3.78;;;;;;;12.13;100.00;98566.31;5065964;28;20496;-96
2022/09/22 03:25:16;;;;;;;9.82;4.20;;;;;;;12.14;100.00;98573.28;5067428;28;20032;-96
2022/09/22 03:27:49;;;;;;;9.70;3.85;;;;;;;12.26;100.00;98560.00;5079602;28;20016;-95
2022/09/22 03:30:16;;;;;;;11.40;4.63;;;;;;;12.13;100.00;98553.25;5071852;28;20036;-96
2022/09/22 03:32:42;;;;;;;9.30;3.92;;;;;;;12.07;100.00;98553.38;5076297;28;20103;-95
2022/09/22 03:35:12;;;;;;;10.73;4.30;;;;;;;12.03;100.00;98549.09;5078142;28;20115;-96
2022/09/22 03:37:38;;;;;;;10.82;4.25;;;;;;;12.00;100.00;98555.25;5073195;28;20067;-96
2022/09/22 03:40:04;;;;;;;11.30;4.13;;;;;;;11.99;100.00;98555.28;5068202;28;20446;-96
2022/09/22 03:42:29;;;;;;;11.68;4.43;;;;;;;12.23;100.00;98567.91;5072698;28;20435;-95
2022/09/22 03:44:58;;;;;;;10.98;4.30;;;;;;;12.16;100.00;98545.34;5082920;28;20039;-96
2022/09/22 03:47:28;;;;;;;20.75;7.82;;;;;;;12.08;100.00;98542.91;5076695;28;20534;-95
2022/09/22 03:49:53;;;;;;;10.30;4.40;;;;;;;12.18;100.00;98554.03;5070969;28;20028;-95
2022/09/22 03:52:19;;;;;;;10.23;4.35;;;;;;;12.17;100.00;98547.06;5079260;28;20027;-96
2022/09/22 03:54:44;;;;;;;9.70;4.00;;;;;;;11.93;100.00;98528.31;5064567;28;20401;-95
2022/09/22 03:57:10;;;;;;;12.70;4.60;;;;;;;11.94;100.00;98530.09;5084378;28;20027;-96
2022/09/22 03:59:35;;;;;;;12.63;4.50;;;;;;;11.81;100.00;98519.84;5068911;28;20517;-96
2022/09/22 04:02:03;;;;;;;10.20;4.07;;;;;;;11.87;100.00;98515.38;5065155;28;20139;-96
2022/09/22 04:04:31;;;;;;;9.20;3.95;;;;;;;11.98;100.00;98516.94;5079190;28;20025;-96
2022/09/22 04:06:56;;;;;;;9.75;4.30;;;;;;;11.89;100.00;98516.19;5077903;28;20020;-96
2022/09/22 04:09:22;;;;;;;11.27;4.63;;;;;;;11.80;100.00;98511.13;5090946;28;20035;-96
2022/09/22 04:11:55;;;;;;;10.98;4.32;;;;;;;11.82;100.00;98498.91;5082080;28;20065;-96
2022/09/22 04:14:20;;;;;;;;;;;;;;;11.85;100.00;98496.22;5063656;28;20020;-96
2022/09/22 04:16:46;;;;;;;10.65;4.38;;;;;;;11.76;100.00;98485.94;5073242;28;19919;-96
2022/09/22 04:19:12;;;;;;;10.32;4.53;;;;;;;11.60;100.00;98475.78;5097976;28;20024;-95
2022/09/22 04:21:38;;;;;;;10.98;4.40;;;;;;;11.67;100.00;98484.38;5074217;28;20031;-96
2022/09/22 04:24:07;;;;;;;10.77;4.50;;;;;;;11.83;100.00;98495.41;5066756;28;20103;-96
2022/09/22 04:26:32;;;;;;;11.77;4.88;;;;;;;11.69;100.00;98489.56;5068545;28;20051;-95
2022/09/22 04:28:58;;;;;;;9.25;4.05;;;;;;;11.75;100.00;98492.94;5074424;28;20012;-95
2022/09/22 04:31:25;;;;;;;11.23;4.13;;;;;;;11.67;100.00;98500.03;5069189;28;20059;-96
2022/09/22 04:33:51;;;;;;;11.20;5.10;;;;;;;11.61;100.00;98484.50;5068025;28;20115;-96
2022/09/22 04:36:17;;;;;;;13.18;5.55;;;;;;;11.64;100.00;98481.81;5068231;28;20071;-96
2022/09/22 04:38:42;;;;;;;13.98;5.07;;;;;;;11.60;100.00;98485.38;5059022;28;20517;-96
2022/09/22 04:41:08;;;;;;;12.02;5.18;;;;;;;11.37;100.00;98480.53;5071659;28;20037;-96
2022/09/22 04:43:33;;;;;;;11.93;5.53;;;;;;;11.49;100.00;98480.31;5072914;28;20894;-96
2022/09/22 04:45:59;;;;;;;11.27;5.65;;;;;;;11.58;100.00;98477.56;5081861;28;20106;-96
2022/09/22 04:48:24;;;;;;;13.70;6.15;;;;;;;11.57;100.00;98473.22;5072254;28;20025;-96
2022/09/22 04:50:49;;;;;;;16.15;6.38;;;;;;;11.52;100.00;98472.44;5076885;28;20102;-96
2022/09/22 04:53:15;;;;;;;14.43;7.10;;;;;;;11.52;100.00;98475.03;5062520;28;20036;-95
2022/09/22 04:55:40;;;;;;;13.25;6.75;;;;;;;11.39;100.00;98473.56;5067031;28;20028;-96
2022/09/22 04:58:06;;;;;;;15.38;7.75;;;;;;;11.58;100.00;98485.41;5074432;28;20055;-96
2022/09/22 05:00:32;;;;;;;15.23;7.95;;;;;;;11.49;100.00;98480.31;5063813;28;20115;-95
2022/09/22 05:02:57;;;;;;;71.18;19.38;;;;;;;11.48;100.00;98480.34;5064320;28;20070;-95
2022/09/22 05:05:23;;;;;;;16.02;7.53;;;;;;;11.47;100.00;98487.34;5063555;28;20076;-95
2022/09/22 05:07:53;;;;;;;18.70;7.97;;;;;;;11.51;100.00;98481.19;5065585;28;20116;-96
2022/09/22 05:10:21;;;;;;;15.55;8.18;;;;;;;11.40;100.00;98470.91;5067077;28;20772;-96
2022/09/22 05:12:47;;;;;;;797.17;78.28;;;;;;;11.48;100.00;98481.22;5067677;28;20031;-96
2022/09/22 05:15:13;;;;;;;19.85;8.80;;;;;;;11.42;100.00;98483.94;5069957;28;20051;-96
2022/09/22 05:17:47;;;;;;;167.48;148.98;;;;;;;11.35;100.00;98474.50;5063513;28;20036;-96
2022/09/22 05:20:13;;;;;;;21.40;8.25;;;;;;;11.34;100.00;98467.53;5070589;28;20043;-96
2022/09/22 05:22:39;;;;;;;14.80;6.82;;;;;;;11.42;100.00;98458.69;5063228;28;20024;-96
2022/09/22 05:25:10;;;;;;;16.08;7.65;;;;;;;11.42;100.00;98458.69;5070930;28;20082;-96
2022/09/22 05:27:37;;;;;;;17.48;8.43;;;;;;;11.39;100.00;98442.22;5069604;28;20058;-96
2022/09/22 05:30:14;;;;;;;15.52;6.38;;;;;;;11.50;100.00;98460.31;5070340;28;20040;-96
2022/09/22 05:32:44;;;;;;;17.10;7.75;;;;;;;11.37;100.00;98446.59;5071150;28;20487;-96
2022/09/22 05:35:14;;;;;;;16.75;6.63;;;;;;;11.63;100.00;98467.03;5086873;28;20029;-96
2022/09/22 05:37:47;;;;;;;12.63;5.38;;;;;;;11.66;100.00;98456.50;5067226;28;20086;-96
2022/09/22 05:40:13;;;;;;;15.10;7.70;;;;;;;11.24;100.00;98433.75;5068306;28;20484;-96
2022/09/22 05:42:45;;;;;;;1999.90;999.90;;;;;;;11.07;100.00;98459.28;5065835;28;20029;-96
2022/09/22 05:45:12;;;;;;;1999.90;999.90;;;;;;;10.99;100.00;98463.75;5068711;28;20052;-96
2022/09/22 05:47:38;;;;;;;9.50;5.78;;;;;;;11.62;100.00;98465.28;5073157;28;20021;-96
2022/09/22 05:50:13;;;;;;;23.08;14.73;;;;;;;11.68;100.00;98470.44;5084007;28;20030;-96
2022/09/22 05:52:39;;;;;;;1999.90;999.90;;;;;;;11.78;100.00;98442.38;5073142;28;20034;-96
2022/09/22 05:55:09;;;;;;;1999.90;999.90;;;;;;;11.85;100.00;98461.41;5075818;28;20032;-96
2022/09/22 05:57:35;;;;;;;1999.90;999.90;;;;;;;11.19;100.00;98450.38;5071457;28;20036;-95
2022/09/22 06:00:03;;;;;;;1999.90;999.90;;;;;;;11.16;100.00;98466.97;5073528;28;20032;-96
2022/09/22 06:02:29;;;;;;;34.65;31.63;;;;;;;11.14;100.00;98454.81;5060874;28;20047;-96
2022/09/22 06:04:55;;;;;;;1999.90;999.90;;;;;;;11.83;100.00;98453.59;5074434;28;20491;-94
2022/09/22 06:07:21;;;;;;;718.90;337.85;;;;;;;11.72;100.00;98455.56;5049903;28;20016;-96
2022/09/22 06:09:49;;;;;;;1120.80;103.03;;;;;;;11.59;100.00;98447.06;5051790;28;20087;-96
2022/09/22 06:12:16;;;;;;;19.90;9.52;;;;;;;11.28;100.00;98448.47;5068045;28;20064;-96
2022/09/22 06:14:44;;;;;;;23.48;10.90;;;;;;;11.66;100.00;98440.84;5051077;28;20034;-96
2022/09/22 06:17:15;;;;;;;21.52;10.63;;;;;;;11.36;100.00;98431.84;5053432;28;20036;-94
2022/09/22 06:19:50;;;;;;;17.45;10.23;;;;;;;11.44;100.00;98429.94;5055089;28;20027;-96
2022/09/22 06:22:16;;;;;;;18.90;9.60;;;;;;;11.77;100.00;98427.59;5078952;28;20101;-95
2022/09/22 06:24:44;;;;;;;18.75;9.38;;;;;;;11.93;100.00;98421.16;5072896;28;20021;-96
2022/09/22 06:27:18;;;;;;;20.27;9.95;;;;;;;12.02;100.00;98432.38;5062711;28;20028;-93
2022/09/22 06:29:43;;;;;;;18.13;9.43;;;;;;;12.15;100.00;98439.09;5073522;28;20040;-96
2022/09/22 06:32:13;;;;;;;17.67;8.68;;;;;;;11.71;100.00;98439.00;5082503;28;20065;-96
2022/09/22 06:34:38;;;;;;;17.75;9.20;;;;;;;11.78;100.00;98447.59;5065879;28;20021;-95
2022/09/22 06:37:07;;;;;;;19.40;9.82;;;;;;;12.11;100.00;98440.03;5073971;28;20047;-96
2022/09/22 06:39:36;;;;;;;20.60;9.57;;;;;;;12.10;100.00;98447.00;5073340;28;20119;-96
2022/09/22 06:42:03;;;;;;;17.98;9.18;;;;;;;11.71;100.00;98448.63;5060476;28;20013;-96
2022/09/22 06:44:30;;;;;;;18.15;9.77;;;;;;;12.28;100.00;98450.13;5066418;28;20035;-94
2022/09/22 06:46:56;;;;;;;17.92;8.88;;;;;;;11.69;100.00;98466.94;5054452;28;20020;-93
2022/09/22 06:49:21;;;;;;;16.48;8.88;;;;;;;11.91;100.00;98437.75;5062996;28;20023;-94
2022/09/22 06:52:04;;;;;;;19.33;8.75;;;;;;;11.79;100.00;98436.28;5074440;28;20051;-96
2022/09/22 06:54:33;;;;;;;18.70;9.27;;;;;;;12.02;100.00;98440.22;5051631;23;20085;-93
2022/09/22 06:57:02;;;;;;;17.55;8.98;;;;;;;12.06;100.00;98444.47;5047346;28;20032;-93
2022/09/22 06:59:32;;;;;;;21.00;9.95;;;;;;;12.04;100.00;98456.72;5049828;28;20025;-92
2022/09/22 07:02:03;;;;;;;17.80;9.80;;;;;;;11.93;100.00;98457.75;5048045;28;20115;-91
2022/09/22 07:04:29;;;;;;;19.50;9.43;;;;;;;12.30;100.00;98453.56;5049196;28;20028;-93
2022/09/22 07:06:55;;;;;;;18.63;9.20;;;;;;;12.17;100.00;98444.28;5068767;28;20047;-93
2022/09/22 07:09:21;;;;;;;19.85;10.20;;;;;;;12.40;100.00;98447.25;5044179;28;20028;-91
2022/09/22 07:11:49;;;;;;;17.58;8.82;;;;;;;12.17;100.00;98452.13;5070722;28;20020;-93
2022/09/22 07:14:15;;;;;;;18.83;9.05;;;;;;;12.42;100.00;98449.84;5050938;28;20633;-93
2022/09/22 07:16:45;;;;;;;17.50;8.70;;;;;;;12.43;100.00;98447.19;5051182;28;20028;-91
2022/09/22 07:19:14;;;;;;;16.38;8.52;;;;;;;12.44;100.00;98453.28;5050858;28;20029;-93
2022/09/22 07:21:39;;;;;;;16.63;8.40;;;;;;;12.66;100.00;98453.66;5039634;28;20028;-92
2022/09/22 07:24:13;;;;;;;15.75;7.72;;;;;;;12.48;100.00;98457.53;5049684;28;20094;-91
2022/09/22 07:26:41;;;;;;;17.30;9.00;;;;;;;12.56;100.00;98445.16;5059528;28;20020;-93
2022/09/22 07:29:12;;;;;;;18.60;8.90;;;;;;;12.63;100.00;98454.59;5040567;28;20115;-91
2022/09/22 07:31:38;;;;;;;17.70;8.52;;;;;;;12.79;100.00;98459.50;5043908;28;20028;-91
2022/09/22 07:34:03;;;;;;;16.92;9.13;;;;;;;12.60;100.00;98446.81;5054810;28;20064;-91
2022/09/22 07:36:31;;;;;;;16.73;8.68;;;;;;;12.96;100.00;98453.88;5056078;28;20479;-92
2022/09/22 07:39:03;;;;;;;18.85;9.27;;;;;;;13.39;100.00;98451.97;5046714;28;20016;-92
2022/09/22 07:41:30;;;;;;;17.42;8.65;;;;;;;12.94;100.00;98456.53;5058892;28;20033;-91
2022/09/22 07:46:43;;;;;;;17.95;8.23;;;;;;;13.70;100.00;98452.03;5059483;28;20142;-92
2022/09/22 07:49:08;;;;;;;15.27;8.15;;;;;;;13.05;100.00;98461.47;5044647;28;20024;-92
2022/09/22 07:51:37;;;;;;;15.32;8.15;;;;;;;13.77;100.00;98452.75;5058997;28;20055;-93
2022/09/22 07:54:06;;;;;;;16.00;8.15;;;;;;;13.04;100.00;98446.69;5067119;28;20536;-92
2022/09/22 07:56:40;;;;;;;14.95;7.88;;;;;;;13.12;100.00;98456.97;5045458;28;20059;-93
2022/09/22 07:59:28;;;;;;;16.85;7.43;;;;;;;13.25;100.00;98452.28;5043221;28;20049;-91
2022/09/22 08:01:54;;;;;;;15.90;7.38;;;;;;;13.27;100.00;98445.25;5057067;28;20585;-90
2022/09/22 08:04:21;;;;;;;14.80;7.05;;;;;;;14.07;100.00;98463.28;5075658;28;20494;-92
2022/09/22 08:06:51;;;;;;;14.48;7.13;;;;;;;13.76;100.00;98446.63;5054716;28;20040;-93
2022/09/22 08:09:17;;;;;;;14.20;7.03;;;;;;;13.39;100.00;98450.22;5059314;28;20021;-91
2022/09/22 08:11:47;;;;;;;13.13;6.70;;;;;;;13.65;100.00;98441.69;5064120;28;20567;-91
2022/09/22 08:14:17;;;;;;;14.85;6.93;;;;;;;14.45;100.00;98448.22;5063568;28;20075;-92
2022/09/22 08:16:44;;;;;;;13.90;6.63;;;;;;;13.67;100.00;98446.91;5071806;28;20436;-92
2022/09/22 08:19:12;;;;;;;12.48;6.07;;;;;;;14.63;100.00;98449.47;5078185;28;20036;-92
2022/09/22 08:21:46;;;;;;;16.30;7.10;;;;;;;14.76;100.00;98463.06;5068993;28;20032;-89
2022/09/22 08:24:13;;;;;;;14.77;6.75;;;;;;;13.80;100.00;98442.16;5064091;28;20029;-93
2022/09/22 08:26:42;;;;;;;15.00;6.75;;;;;;;14.84;100.00;98445.31;5044103;28;20036;-92
2022/09/22 08:29:09;;;;;;;14.18;6.93;;;;;;;13.99;100.00;98451.25;5041638;28;20029;-91
2022/09/22 08:31:35;;;;;;;15.27;7.30;;;;;;;14.52;100.00;98447.13;5057550;28;20044;-91
2022/09/22 08:34:05;;;;;;;14.57;7.10;;;;;;;14.74;100.00;98447.38;5039324;28;20114;-91
2022/09/22 08:36:34;;;;;;;14.77;6.70;;;;;;;14.04;100.00;98443.25;5048914;28;20037;-92
2022/09/22 08:39:01;;;;;;;15.98;6.78;;;;;;;14.53;100.00;98443.59;5063603;28;20079;-91
2022/09/22 08:41:27;;;;;;;13.05;6.20;;;;;;;14.23;100.00;98447.97;5036875;28;20025;-91
2022/09/22 08:43:54;;;;;;;13.95;5.97;;;;;;;14.32;100.00;98427.59;5072271;28;20174;-92
2022/09/22 08:46:43;;;;;;;13.02;6.47;;;;;;;14.43;100.00;98427.28;5043516;28;20474;-90
2022/09/22 08:52:49;;;;;;;12.48;5.57;;;;;;;14.53;100.00;98443.59;5053498;28;20135;-92
2022/09/22 08:55:31;;;;;;;12.68;5.40;;;;;;;14.46;100.00;98437.69;5039417;28;20091;-92
2022/09/22 08:58:06;;;;;;;13.02;5.75;;;;;;;14.45;100.00;98450.84;5050229;28;20495;-91
2022/09/22 09:01:13;;;;;;;14.07;5.70;;;;;;;14.64;100.00;98441.53;5064902;28;20761;-93
2022/09/22 09:04:05;;;;;;;13.57;5.90;;;;;;;14.46;100.00;98463.03;5036255;28;20415;-92
2022/09/22 09:07:10;;;;;;;10.73;5.22;;;;;;;14.41;100.00;98465.81;5054737;28;20040;-93
2022/09/22 09:10:02;;;;;;;13.50;6.20;;;;;;;14.72;100.00;98450.94;4985429;28;20810;-92
2022/09/22 09:13:12;;;;;;;19.58;17.75;;;;;;;14.91;100.00;98459.09;4966550;28;20058;-94
2022/09/22 09:15:38;;;;;;;16.30;7.47;;;;;;;14.90;100.00;98466.09;4984168;28;20098;-92
2022/09/22 09:18:27;;;;;;;34.70;24.23;;;;;;;14.87;100.00;98452.22;4987487;28;20500;-91
2022/09/22 09:20:58;;;;;;;19.50;17.52;;;;;;;14.78;100.00;98446.38;4994558;28;20145;-93
2022/09/22 09:26:17;;;;;;;13.13;5.78;;;;;;;14.67;100.00;98457.19;4932733;29;20039;-92
2022/09/22 09:29:00;;;;;;;15.75;13.10;;;;;;;14.50;100.00;98443.66;4918878;29;20132;-95
2022/09/22 09:31:55;;;;;;;12.88;9.68;;;;;;;14.74;100.00;98451.72;4930448;29;20039;-93
2022/09/22 09:35:00;;;;;;;14.35;8.80;;;;;;;15.02;100.00;98455.22;4914813;29;20071;-94
2022/09/22 09:37:33;;;;;;;14.02;6.50;;;;;;;14.88;100.00;98441.69;4930728;29;20114;-94
2022/09/22 09:40:20;;;;;;;13.32;5.97;;;;;;;15.06;100.00;98452.50;4912751;29;20083;-93
2022/09/22 09:43:04;;;;;;;11.90;5.32;;;;;;;15.09;100.00;98436.66;4933179;29;20032;-93
2022/09/22 09:46:14;;;;;;;11.95;5.22;;;;;;;15.36;100.00;98459.38;4917403;29;20038;-93
2022/09/22 09:49:06;;;;;;;11.88;5.47;;;;;;;15.73;100.00;98456.38;4967005;28;20027;-94
2022/09/22 09:51:42;;;;;;;12.30;5.78;;;;;;;15.31;100.00;98445.53;4990377;28;20073;-94
2022/09/22 09:54:12;;;;;;;12.40;6.15;;;;;;;15.25;100.00;98434.38;4988383;28;20050;-95
2022/09/22 09:57:19;;;;;;;13.75;5.97;;;;;;;15.50;100.00;98455.41;4987642;28;20053;-93
2022/09/22 10:02:38;;;;;;;12.68;6.32;;;;;;;15.55;100.00;98456.13;4991851;28;20170;-93
2022/09/22 10:05:24;;;;;;;12.77;5.47;;;;;;;15.94;100.00;98453.03;5031639;28;20116;-91
2022/09/22 10:07:59;;;;;;;79.63;19.88;;;;;;;15.59;100.00;98451.59;5046157;28;20845;-92
2022/09/22 10:10:27;;;;;;;12.45;6.10;;;;;;;16.12;100.00;98462.03;5063317;28;20032;-93
2022/09/22 10:12:53;;;;;;;10.48;5.32;;;;;;;16.26;100.00;98448.38;5045011;28;20067;-92
2022/09/22 10:15:55;;;;;;;;;;;;;;;;;;;;;
2022/09/22 10:18:25;;;;;;;14.63;6.18;;;;;;;16.18;100.00;98446.03;5052956;28;20139;-91
2022/09/22 10:21:17;;;;;;;12.52;5.68;;;;;;;16.39;100.00;98451.41;5063947;28;20487;-93
2022/09/22 10:23:48;;;;;;;10.93;5.38;;;;;;;16.26;100.00;98437.84;5057287;28;20039;-92
2022/09/22 10:26:15;;;;;;;11.15;5.43;;;;;;;16.89;100.00;98448.63;5053730;28;20024;-93
2022/09/22 10:28:42;;;;;;;11.38;4.90;;;;;;;16.60;100.00;98440.97;5059809;28;20029;-92
2022/09/22 10:31:25;;;;;;;10.98;5.07;;;;;;;16.42;100.00;98446.03;5065179;28;20063;-91
2022/09/22 10:33:59;;;;;;;10.57;4.90;;;;;;;16.43;100.00;98449.53;5056564;28;20373;-93
2022/09/22 10:36:28;;;;;;;10.10;5.07;;;;;;;16.47;100.00;98459.03;5050148;28;20032;-91
2022/09/22 10:38:54;;;;;;;12.18;5.50;;;;;;;16.16;100.00;98449.66;5052854;28;20040;-93
2022/09/22 10:44:27;;;;;;;10.57;5.22;;;;;;;16.54;100.00;98445.56;5035683;28;20066;-94
2022/09/22 10:50:05;;;;;;;13.77;5.28;;;;;;;16.65;100.00;98453.03;5057589;28;20041;-93
2022/09/22 10:52:53;;;;;;;13.13;5.13;;;;;;;16.86;100.00;98453.13;5052858;28;20083;-94
2022/09/22 10:55:28;;;;;;;11.43;4.90;;;;;;;16.66;100.00;98456.53;5054930;28;20056;-93
2022/09/22 10:58:19;;;;;;;10.43;4.93;;;;;;;16.73;100.00;98466.78;5062327;28;20074;-94
2022/09/22 11:00:46;;;;;;;10.98;5.10;;;;;;;16.82;100.00;98444.47;5065556;28;20063;-93
2022/09/22 11:04:09;;;;;;;44.50;16.90;;;;;;;17.23;100.00;98457.81;5054685;28;20033;-89
2022/09/22 11:13:30;;;;;;;11.18;5.13;;;;;;;17.02;100.00;98449.00;4945794;28;20077;-93
2022/09/22 11:16:52;;;;;;;404.27;76.68;;;;;;;16.88;100.00;98446.91;4926242;29;20067;-92
2022/09/22 11:19:42;;;;;;;1384.43;172.70;;;;;;;16.68;100.00;98445.03;4920139;28;20126;-92
2022/09/22 11:22:58;;;;;;;160.82;36.67;;;;;;;17.16;100.00;98444.94;4925980;28;20035;-92
2022/09/22 11:26:17;;;;;;;312.98;100.35;;;;;;;16.88;100.00;98446.00;4925790;29;20138;-92
2022/09/22 11:29:06;;;;;;;10.90;5.00;;;;;;;16.85;100.00;98427.69;4925512;29;20031;-92
2022/09/22 11:32:08;;;;;;;305.45;100.93;;;;;;;17.02;100.00;98449.00;4939528;28;20821;-92
2022/09/22 11:35:24;;;;;;;1999.90;999.90;;;;;;;17.30;100.00;98450.50;4942234;28;20031;-91
2022/09/22 11:38:17;;;;;;;474.65;373.45;;;;;;;17.16;100.00;98450.19;4956147;28;20058;-91
2022/09/22 11:44:27;;;;;;;121.90;16.50;;;;;;;17.78;100.00;98466.09;4930346;29;20036;-92
2022/09/22 11:47:01;;;;;;;11.85;5.20;;;;;;;17.15;100.00;98461.69;4932230;28;20041;-91
2022/09/22 11:49:53;;;;;;;10.25;4.75;;;;;;;17.05;100.00;98474.38;4991647;28;20714;-91
2022/09/22 11:52:57;;;;;;;11.73;4.72;;;;;;;16.87;100.00;98468.03;5063393;28;20146;-91
2022/09/22 11:55:53;;;;;;;11.90;5.78;;;;;;;16.86;100.00;98463.66;5069062;28;20048;-93
2022/09/22 11:58:22;;;;;;;11.38;4.90;;;;;;;16.68;100.00;98468.72;5042215;28;20162;-94
2022/09/22 12:01:31;;;;;;;11.68;5.28;;;;;;;16.61;100.00;98474.28;5074821;28;20056;-93
2022/09/22 12:04:00;;;;;;;11.27;5.00;;;;;;;16.82;100.00;98462.91;5069209;28;20040;-93
2022/09/22 12:06:41;;;;;;;11.65;5.10;;;;;;;16.31;100.00;98456.97;5046902;28;20050;-93
2022/09/22 12:09:54;;;;;;;13.00;5.63;;;;;;;16.34;100.00;98472.63;5031862;28;20067;-93
2022/09/22 12:12:23;;;;;;;10.77;5.05;;;;;;;16.42;100.00;98468.84;5056454;28;20025;-91
2022/09/22 12:15:28;;;;;;;13.55;5.10;;;;;;;16.68;100.00;98458.19;5035458;28;20040;-93
2022/09/22 12:17:57;;;;;;;12.85;4.97;;;;;;;16.76;100.00;98462.28;4994967;28;20504;-92
2022/09/22 12:20:47;;;;;;;11.32;4.97;;;;;;;16.54;100.00;98468.41;5057447;28;20033;-92